createdAt,value
2018-06-27T00:00:27.294Z,0.00
2018-06-27T00:01:27.514Z,0.00
2018-06-27T00:02:27.741Z,0.00
2018-06-27T00:03:27.966Z,0.00
2018-06-27T00:04:28.196Z,0.00
2018-06-27T00:05:28.426Z,0.00
2018-06-27T00:06:28.659Z,0.00
2018-06-27T00:07:28.883Z,0.00
2018-06-27T00:08:29.112Z,0.00
2018-06-27T00:09:29.340Z,0.00
2018-06-27T00:10:29.572Z,0.00
2018-06-27T00:11:29.796Z,0.00
2018-06-27T00:12:30.033Z,0.00
2018-06-27T00:13:30.253Z,0.00
2018-06-27T00:14:30.484Z,0.00
2018-06-27T00:15:30.707Z,0.00
2018-06-27T00:16:30.936Z,0.00
2018-06-27T00:17:31.171Z,0.00
2018-06-27T00:18:31.402Z,0.00
2018-06-27T00:19:31.620Z,0.00
2018-06-27T00:20:31.850Z,0.00
2018-06-27T00:21:32.108Z,0.00
2018-06-27T00:22:32.305Z,0.00
2018-06-27T00:23:32.515Z,0.00
2018-06-27T00:24:32.745Z,0.00
2018-06-27T00:25:32.971Z,0.00
2018-06-27T00:26:33.199Z,0.00
2018-06-27T00:27:33.427Z,0.00
2018-06-27T00:28:33.655Z,0.00
2018-06-27T00:29:33.885Z,0.00
2018-06-27T00:30:34.113Z,0.00
2018-06-27T00:31:34.355Z,0.00
2018-06-27T00:32:34.574Z,0.00
2018-06-27T00:33:34.803Z,0.00
2018-06-27T00:34:35.026Z,0.00
2018-06-27T00:35:35.260Z,0.00
2018-06-27T00:36:35.482Z,0.00
2018-06-27T00:37:35.715Z,0.00
2018-06-27T00:38:35.941Z,0.00
2018-06-27T00:39:36.172Z,0.00
2018-06-27T00:40:36.397Z,0.00
2018-06-27T00:41:36.629Z,0.00
2018-06-27T00:42:36.859Z,0.00
2018-06-27T00:43:37.095Z,0.00
2018-06-27T00:44:37.314Z,0.00
2018-06-27T00:45:37.541Z,0.00
2018-06-27T00:46:37.767Z,0.00
2018-06-27T00:47:37.999Z,0.00
2018-06-27T00:48:38.228Z,0.00
2018-06-27T00:49:38.468Z,0.00
2018-06-27T00:50:38.684Z,0.00
2018-06-27T00:51:38.910Z,0.00
2018-06-27T00:52:39.143Z,0.00
2018-06-27T00:53:39.373Z,0.00
2018-06-27T00:54:39.602Z,0.00
2018-06-27T00:55:39.842Z,0.00
2018-06-27T00:56:40.053Z,0.00
2018-06-27T00:57:40.293Z,0.00
2018-06-27T00:58:40.504Z,0.00
2018-06-27T00:59:40.743Z,0.00
2018-06-27T01:00:40.964Z,0.00
2018-06-27T01:01:41.193Z,0.00
2018-06-27T01:02:41.423Z,0.00
2018-06-27T01:03:41.644Z,0.00
2018-06-27T01:04:41.871Z,0.00
2018-06-27T01:05:42.104Z,0.00
2018-06-27T01:06:42.337Z,0.00
2018-06-27T01:07:42.569Z,0.00
2018-06-27T01:08:42.791Z,0.00
2018-06-27T01:09:43.015Z,0.00
2018-06-27T01:10:43.340Z,0.00
2018-06-27T01:11:43.478Z,0.00
2018-06-27T01:12:43.702Z,0.00
2018-06-27T01:13:43.931Z,0.00
2018-06-27T01:14:44.159Z,0.00
2018-06-27T01:15:44.382Z,0.00
2018-06-27T01:16:44.624Z,0.00
2018-06-27T01:17:44.849Z,0.00
2018-06-27T01:18:45.078Z,0.00
2018-06-27T01:19:45.310Z,0.00
2018-06-27T01:20:45.538Z,0.00
2018-06-27T01:21:45.768Z,0.00
2018-06-27T01:22:45.996Z,0.00
2018-06-27T01:23:46.227Z,0.00
2018-06-27T01:24:46.456Z,0.00
2018-06-27T01:25:46.693Z,0.00
2018-06-27T01:26:46.909Z,0.00
2018-06-27T01:27:47.142Z,0.00
2018-06-27T01:28:47.372Z,0.00
2018-06-27T01:29:47.602Z,0.00
2018-06-27T01:30:47.828Z,0.00
2018-06-27T01:31:48.057Z,0.00
2018-06-27T01:32:48.296Z,0.00
2018-06-27T01:33:48.519Z,0.00
2018-06-27T01:34:48.744Z,0.00
2018-06-27T01:35:48.972Z,0.00
2018-06-27T01:36:49.202Z,0.00
2018-06-27T01:37:49.427Z,0.00
2018-06-27T01:38:49.651Z,0.00
2018-06-27T01:39:49.881Z,0.00
2018-06-27T01:40:50.145Z,0.00
2018-06-27T01:41:50.342Z,0.00
2018-06-27T01:42:50.571Z,0.00
2018-06-27T01:43:50.796Z,0.00
2018-06-27T01:44:51.025Z,0.00
2018-06-27T01:45:51.256Z,0.00
2018-06-27T01:46:51.481Z,0.00
2018-06-27T01:47:51.711Z,0.00
2018-06-27T01:48:51.939Z,0.00
2018-06-27T01:49:52.168Z,0.00
2018-06-27T01:50:52.392Z,0.00
2018-06-27T01:51:52.622Z,0.00
2018-06-27T01:52:52.850Z,0.00
2018-06-27T01:53:53.080Z,0.00
2018-06-27T01:54:53.311Z,0.00
2018-06-27T01:55:53.543Z,0.00
2018-06-27T01:56:53.768Z,0.00
2018-06-27T01:57:54.007Z,0.00
2018-06-27T01:58:54.239Z,0.00
2018-06-27T01:59:54.469Z,0.00
2018-06-27T02:00:54.699Z,0.00
2018-06-27T02:01:54.929Z,0.00
2018-06-27T02:02:55.159Z,0.00
2018-06-27T02:03:55.388Z,0.00
2018-06-27T02:04:55.612Z,0.00
2018-06-27T02:05:55.830Z,0.00
2018-06-27T02:06:56.056Z,0.00
2018-06-27T02:07:56.279Z,0.00
2018-06-27T02:08:56.507Z,0.00
2018-06-27T02:09:56.739Z,0.00
2018-06-27T02:10:56.968Z,0.00
2018-06-27T02:11:57.199Z,0.00
2018-06-27T02:12:57.426Z,0.00
2018-06-27T02:13:57.656Z,0.00
2018-06-27T02:14:57.885Z,0.00
2018-06-27T02:15:58.118Z,0.00
2018-06-27T02:16:58.344Z,0.00
2018-06-27T02:17:58.577Z,0.00
2018-06-27T02:18:58.805Z,4.00
2018-06-27T02:19:59.033Z,4.00
2018-06-27T02:20:59.263Z,4.00
2018-06-27T02:21:59.493Z,0.00
2018-06-27T02:22:59.724Z,0.00
2018-06-27T02:23:59.953Z,0.00
2018-06-27T02:25:00.183Z,4.00
2018-06-27T02:26:00.411Z,4.00
2018-06-27T02:27:00.639Z,4.00
2018-06-27T02:28:00.866Z,4.00
2018-06-27T02:29:01.099Z,4.00
2018-06-27T02:30:01.328Z,4.00
2018-06-27T02:31:01.557Z,4.00
2018-06-27T02:32:01.785Z,4.00
2018-06-27T02:33:02.014Z,8.00
2018-06-27T02:34:02.259Z,8.00
2018-06-27T02:35:02.474Z,8.00
2018-06-27T02:36:02.700Z,8.00
2018-06-27T02:37:02.932Z,12.00
2018-06-27T02:38:03.163Z,12.00
2018-06-27T02:39:03.388Z,16.00
2018-06-27T02:40:03.619Z,16.00
2018-06-27T02:41:03.848Z,20.00
2018-06-27T02:42:04.072Z,20.00
2018-06-27T02:43:04.301Z,20.00
2018-06-27T02:44:04.529Z,24.00
2018-06-27T02:45:04.761Z,28.00
2018-06-27T02:46:04.992Z,28.00
2018-06-27T02:47:05.221Z,32.00
2018-06-27T02:48:05.459Z,36.00
2018-06-27T02:49:05.683Z,36.00
2018-06-27T02:50:05.985Z,40.00
2018-06-27T02:51:06.144Z,44.00
2018-06-27T02:52:06.372Z,52.00
2018-06-27T02:53:06.608Z,56.00
2018-06-27T02:54:06.836Z,64.00
2018-06-27T02:55:07.062Z,72.00
2018-06-27T02:56:07.295Z,80.00
2018-06-27T02:57:07.521Z,88.00
2018-06-27T02:58:07.751Z,104.00
2018-06-27T02:59:07.979Z,112.00
2018-06-27T03:00:08.211Z,124.00
2018-06-27T03:01:08.441Z,140.00
2018-06-27T03:02:08.670Z,156.00
2018-06-27T03:03:08.899Z,168.00
2018-06-27T03:04:09.124Z,184.00
2018-06-27T03:05:09.353Z,204.00
2018-06-27T03:06:09.578Z,224.00
2018-06-27T03:07:09.809Z,244.00
2018-06-27T03:08:10.038Z,264.00
2018-06-27T03:09:10.268Z,284.00
2018-06-27T03:10:10.496Z,308.00
2018-06-27T03:11:10.725Z,328.00
2018-06-27T03:12:10.961Z,352.00
2018-06-27T03:13:11.193Z,376.00
2018-06-27T03:14:11.418Z,400.00
2018-06-27T03:15:11.651Z,428.00
2018-06-27T03:16:11.883Z,456.00
2018-06-27T03:17:12.106Z,484.00
2018-06-27T03:18:12.338Z,516.00
2018-06-27T03:19:12.572Z,548.00
2018-06-27T03:20:12.830Z,584.00
2018-06-27T03:21:13.043Z,628.00
2018-06-27T03:22:13.244Z,684.00
2018-06-27T03:23:13.471Z,740.00
2018-06-27T03:24:13.702Z,800.00
2018-06-27T03:25:13.932Z,864.00
2018-06-27T03:26:14.153Z,920.00
2018-06-27T03:27:14.385Z,984.00
2018-06-27T03:28:14.618Z,1044.00
2018-06-27T03:29:14.843Z,1108.00
2018-06-27T03:30:15.073Z,1168.00
2018-06-27T03:31:15.301Z,1228.00
2018-06-27T03:32:15.529Z,1284.00
2018-06-27T03:33:15.759Z,1332.00
2018-06-27T03:34:15.985Z,1384.00
2018-06-27T03:35:16.215Z,1424.00
2018-06-27T03:36:16.444Z,1452.00
2018-06-27T03:37:16.673Z,1472.00
2018-06-27T03:38:16.909Z,1492.00
2018-06-27T03:39:17.130Z,1520.00
2018-06-27T03:40:17.362Z,1536.00
2018-06-27T03:41:17.588Z,1556.00
2018-06-27T03:42:17.816Z,1576.00
2018-06-27T03:43:18.047Z,1612.00
2018-06-27T03:44:18.277Z,1648.00
2018-06-27T03:45:18.505Z,1692.00
2018-06-27T03:46:18.733Z,1768.00
2018-06-27T03:47:18.964Z,1888.00
2018-06-27T03:48:19.194Z,2104.00
2018-06-27T03:49:19.421Z,2204.00
2018-06-27T03:50:19.655Z,2240.00
2018-06-27T03:51:19.879Z,2284.00
2018-06-27T03:52:20.113Z,2252.00
2018-06-27T03:53:20.343Z,2272.00
2018-06-27T03:54:20.576Z,2328.00
2018-06-27T03:55:20.806Z,2396.00
2018-06-27T03:56:21.038Z,2480.00
2018-06-27T03:57:21.269Z,2592.00
2018-06-27T03:58:21.501Z,2720.00
2018-06-27T03:59:21.730Z,2860.00
2018-06-27T04:00:21.960Z,3040.00
2018-06-27T04:01:22.184Z,3096.00
2018-06-27T04:02:22.414Z,3192.00
2018-06-27T04:03:22.645Z,3548.00
2018-06-27T04:04:22.875Z,4396.00
2018-06-27T04:05:23.100Z,5324.00
2018-06-27T04:06:23.339Z,5076.00
2018-06-27T04:07:23.564Z,7700.00
2018-06-27T04:08:23.792Z,9724.00
2018-06-27T04:09:24.021Z,13408.00
2018-06-27T04:10:24.250Z,12320.00
2018-06-27T04:11:24.482Z,8608.00
2018-06-27T04:12:24.713Z,9740.00
2018-06-27T04:13:25.047Z,8620.00
2018-06-27T04:14:25.221Z,8220.00
2018-06-27T04:15:25.400Z,4744.00
2018-06-27T04:16:25.631Z,4668.00
2018-06-27T04:17:25.860Z,4776.00
2018-06-27T04:18:26.093Z,5036.00
2018-06-27T04:19:26.322Z,5160.00
2018-06-27T04:20:26.553Z,5316.00
2018-06-27T04:21:26.788Z,5628.00
2018-06-27T04:22:27.015Z,5844.00
2018-06-27T04:23:27.247Z,6008.00
2018-06-27T04:24:27.477Z,6152.00
2018-06-27T04:25:27.708Z,6264.00
2018-06-27T04:26:27.939Z,6544.00
2018-06-27T04:27:28.170Z,7012.00
2018-06-27T04:28:28.397Z,7272.00
2018-06-27T04:29:28.627Z,7152.00
2018-06-27T04:30:28.855Z,7028.00
2018-06-27T04:31:29.083Z,6808.00
2018-06-27T04:32:29.312Z,6860.00
2018-06-27T04:33:29.541Z,7012.00
2018-06-27T04:34:29.774Z,7152.00
2018-06-27T04:35:30.007Z,7204.00
2018-06-27T04:36:30.234Z,7040.00
2018-06-27T04:37:30.465Z,7492.00
2018-06-27T04:38:30.697Z,7888.00
2018-06-27T04:39:30.923Z,8720.00
2018-06-27T04:40:31.159Z,11788.00
2018-06-27T04:41:31.386Z,14320.00
2018-06-27T04:42:31.614Z,24480.00
2018-06-27T04:43:31.842Z,28608.00
2018-06-27T04:44:32.075Z,27584.00
2018-06-27T04:45:32.306Z,29280.00
2018-06-27T04:46:32.537Z,30496.00
2018-06-27T04:47:32.767Z,31328.00
2018-06-27T04:48:33.000Z,32416.00
2018-06-27T04:49:33.262Z,32512.00
2018-06-27T04:50:33.472Z,32992.00
2018-06-27T04:51:33.696Z,32960.00
2018-06-27T04:52:33.922Z,32960.00
2018-06-27T04:53:34.152Z,33248.00
2018-06-27T04:54:34.386Z,33184.00
2018-06-27T04:55:34.617Z,34080.00
2018-06-27T04:56:34.849Z,34240.00
2018-06-27T04:57:35.085Z,34272.00
2018-06-27T04:58:35.320Z,34336.00
2018-06-27T04:59:35.559Z,34048.00
2018-06-27T05:00:35.793Z,33632.00
2018-06-27T05:01:36.082Z,33376.00
2018-06-27T05:02:36.265Z,31744.00
2018-06-27T05:03:36.498Z,33504.00
2018-06-27T05:04:36.735Z,33632.00
2018-06-27T05:05:36.973Z,33088.00
2018-06-27T05:06:37.207Z,32544.00
2018-06-27T05:07:37.445Z,32448.00
2018-06-27T05:08:37.684Z,32704.00
2018-06-27T05:09:37.917Z,33088.00
2018-06-27T05:10:38.152Z,33056.00
2018-06-27T05:11:38.409Z,32832.00
2018-06-27T05:12:38.628Z,33408.00
2018-06-27T05:13:38.868Z,33088.00
2018-06-27T05:14:39.107Z,32608.00
2018-06-27T05:15:39.343Z,32480.00
2018-06-27T05:16:39.578Z,32512.00
2018-06-27T05:17:39.820Z,31936.00
2018-06-27T05:18:40.059Z,31520.00
2018-06-27T05:19:40.294Z,30560.00
2018-06-27T05:20:40.530Z,30048.00
2018-06-27T05:21:40.781Z,29600.00
2018-06-27T05:22:41.001Z,29088.00
2018-06-27T05:23:41.243Z,29728.00
2018-06-27T05:24:41.482Z,29216.00
2018-06-27T05:25:41.715Z,30048.00
2018-06-27T05:26:41.954Z,30272.00
2018-06-27T05:27:42.296Z,30048.00
2018-06-27T05:28:42.436Z,29440.00
2018-06-27T05:29:42.669Z,28704.00
2018-06-27T05:30:42.907Z,28800.00
2018-06-27T05:31:43.145Z,28576.00
2018-06-27T05:32:43.384Z,29376.00
2018-06-27T05:33:43.625Z,28928.00
2018-06-27T05:34:43.862Z,28480.00
2018-06-27T05:35:44.102Z,27040.00
2018-06-27T05:36:44.342Z,27008.00
2018-06-27T05:37:44.580Z,26496.00
2018-06-27T05:38:44.820Z,27328.00
2018-06-27T05:39:45.057Z,28672.00
2018-06-27T05:40:45.300Z,28320.00
2018-06-27T05:41:45.538Z,30144.00
2018-06-27T05:42:45.782Z,29280.00
2018-06-27T05:43:46.018Z,28672.00
2018-06-27T05:44:46.257Z,27712.00
2018-06-27T05:45:46.502Z,27360.00
2018-06-27T05:46:46.738Z,26848.00
2018-06-27T05:47:46.975Z,28032.00
2018-06-27T05:48:47.221Z,27168.00
2018-06-27T05:49:47.458Z,26912.00
2018-06-27T05:50:47.698Z,26624.00
2018-06-27T05:51:47.939Z,26848.00
2018-06-27T05:52:48.177Z,27168.00
2018-06-27T05:53:48.414Z,26848.00
2018-06-27T05:54:48.653Z,25280.00
2018-06-27T05:55:48.892Z,24032.00
2018-06-27T05:56:49.134Z,23360.00
2018-06-27T05:57:49.372Z,24160.00
2018-06-27T05:58:49.615Z,25088.00
2018-06-27T05:59:49.852Z,24928.00
2018-06-27T06:00:50.094Z,24192.00
2018-06-27T06:01:50.337Z,22944.00
2018-06-27T06:02:50.578Z,22272.00
2018-06-27T06:03:50.822Z,23264.00
2018-06-27T06:04:51.060Z,24608.00
2018-06-27T06:05:51.301Z,23648.00
2018-06-27T06:06:51.538Z,21280.00
2018-06-27T06:07:51.776Z,20416.00
2018-06-27T06:08:52.017Z,22784.00
2018-06-27T06:09:52.259Z,25056.00
2018-06-27T06:10:52.498Z,24704.00
2018-06-27T06:11:52.740Z,22944.00
2018-06-27T06:12:53.023Z,22304.00
2018-06-27T06:13:53.221Z,22144.00
2018-06-27T06:14:53.461Z,22208.00
2018-06-27T06:15:53.700Z,22144.00
2018-06-27T06:16:53.940Z,21440.00
2018-06-27T06:17:54.179Z,20256.00
2018-06-27T06:18:54.422Z,19456.00
2018-06-27T06:19:54.663Z,20032.00
2018-06-27T06:20:54.903Z,20256.00
2018-06-27T06:21:55.145Z,19584.00
2018-06-27T06:22:55.382Z,18784.00
2018-06-27T06:23:55.624Z,18496.00
2018-06-27T06:24:55.866Z,18432.00
2018-06-27T06:25:56.106Z,18080.00
2018-06-27T06:26:56.345Z,17664.00
2018-06-27T06:27:56.583Z,17408.00
2018-06-27T06:28:56.821Z,17504.00
2018-06-27T06:29:57.064Z,17216.00
2018-06-27T06:30:57.305Z,17056.00
2018-06-27T06:31:57.542Z,17024.00
2018-06-27T06:32:57.779Z,16704.00
2018-06-27T06:33:58.020Z,16224.00
2018-06-27T06:34:58.260Z,15808.00
2018-06-27T06:35:58.502Z,15488.00
2018-06-27T06:36:58.741Z,14784.00
2018-06-27T06:37:58.983Z,14720.00
2018-06-27T06:38:59.227Z,14472.00
2018-06-27T06:39:59.467Z,14072.00
2018-06-27T06:40:59.710Z,13692.00
2018-06-27T06:41:59.962Z,13696.00
2018-06-27T06:43:00.174Z,13496.00
2018-06-27T06:44:00.410Z,13280.00
2018-06-27T06:45:00.656Z,13220.00
2018-06-27T06:46:00.919Z,12940.00
2018-06-27T06:47:01.131Z,12556.00
2018-06-27T06:48:01.371Z,12264.00
2018-06-27T06:49:01.609Z,12084.00
2018-06-27T06:50:01.858Z,11948.00
2018-06-27T06:51:02.088Z,11748.00
2018-06-27T06:52:02.330Z,11608.00
2018-06-27T06:53:02.565Z,11356.00
2018-06-27T06:54:02.810Z,11224.00
2018-06-27T06:55:03.048Z,11148.00
2018-06-27T06:56:03.291Z,10940.00
2018-06-27T06:57:03.529Z,10688.00
2018-06-27T06:58:03.769Z,10452.00
2018-06-27T06:59:04.009Z,10300.00
2018-06-27T07:00:04.247Z,10264.00
2018-06-27T07:01:04.485Z,10252.00
2018-06-27T07:02:04.725Z,10168.00
2018-06-27T07:03:04.964Z,10092.00
2018-06-27T07:04:05.217Z,10020.00
2018-06-27T07:05:05.440Z,10048.00
2018-06-27T07:06:05.677Z,10032.00
2018-06-27T07:07:05.917Z,10028.00
2018-06-27T07:08:06.151Z,9924.00
2018-06-27T07:09:06.389Z,9808.00
2018-06-27T07:10:06.626Z,9792.00
2018-06-27T07:11:06.876Z,9748.00
2018-06-27T07:12:07.107Z,9664.00
2018-06-27T07:13:07.342Z,9652.00
2018-06-27T07:14:07.581Z,9668.00
2018-06-27T07:15:07.817Z,9668.00
2018-06-27T07:16:08.055Z,9620.00
2018-06-27T07:17:08.293Z,9596.00
2018-06-27T07:18:08.533Z,9516.00
2018-06-27T07:19:08.778Z,9576.00
2018-06-27T07:20:09.012Z,9504.00
2018-06-27T07:21:09.254Z,9560.00
2018-06-27T07:22:09.489Z,9552.00
2018-06-27T07:23:09.719Z,9580.00
2018-06-27T07:24:09.954Z,9648.00
2018-06-27T07:25:10.192Z,9584.00
2018-06-27T07:26:10.432Z,9600.00
2018-06-27T07:27:10.665Z,9528.00
2018-06-27T07:28:10.901Z,9516.00
2018-06-27T07:29:11.133Z,9520.00
2018-06-27T07:30:11.376Z,9440.00
2018-06-27T07:31:11.603Z,9356.00
2018-06-27T07:32:11.840Z,9348.00
2018-06-27T07:33:12.072Z,9376.00
2018-06-27T07:34:12.304Z,9344.00
2018-06-27T07:35:12.539Z,9340.00
2018-06-27T07:36:12.773Z,9320.00
2018-06-27T07:37:13.012Z,9356.00
2018-06-27T07:38:13.247Z,9332.00
2018-06-27T07:39:13.477Z,9312.00
2018-06-27T07:40:13.712Z,9276.00
2018-06-27T07:41:13.947Z,9272.00
2018-06-27T07:42:14.184Z,9336.00
2018-06-27T07:43:14.415Z,9348.00
2018-06-27T07:44:14.655Z,9292.00
2018-06-27T07:45:14.885Z,9312.00
2018-06-27T07:46:15.117Z,9276.00
2018-06-27T07:47:15.347Z,9320.00
2018-06-27T07:48:15.585Z,9352.00
2018-06-27T07:49:15.822Z,9336.00
2018-06-27T07:50:16.057Z,9500.00
2018-06-27T07:51:16.291Z,9416.00
2018-06-27T07:52:16.525Z,9452.00
2018-06-27T07:53:16.760Z,9428.00
2018-06-27T07:54:17.000Z,9364.00
2018-06-27T07:55:17.262Z,9452.00
2018-06-27T07:56:17.485Z,9624.00
2018-06-27T07:57:17.738Z,9416.00
2018-06-27T07:58:17.980Z,9308.00
2018-06-27T07:59:18.206Z,9352.00
2018-06-27T08:00:18.446Z,9504.00
2018-06-27T08:01:18.673Z,9456.00
2018-06-27T08:02:18.911Z,9428.00
2018-06-27T08:03:19.138Z,9476.00
2018-06-27T08:04:19.369Z,9564.00
2018-06-27T08:05:19.603Z,9476.00
2018-06-27T08:06:19.836Z,9432.00
2018-06-27T08:07:20.105Z,9524.00
2018-06-27T08:08:20.300Z,9552.00
2018-06-27T08:09:20.536Z,9380.00
2018-06-27T08:10:20.769Z,9600.00
2018-06-27T08:11:21.004Z,9508.00
2018-06-27T08:12:21.255Z,9540.00
2018-06-27T08:13:21.474Z,9512.00
2018-06-27T08:14:21.702Z,9460.00
2018-06-27T08:15:21.931Z,9456.00
2018-06-27T08:16:22.166Z,9436.00
2018-06-27T08:17:22.403Z,9348.00
2018-06-27T08:18:22.647Z,9268.00
2018-06-27T08:19:22.865Z,9108.00
2018-06-27T08:20:23.101Z,8936.00
2018-06-27T08:21:23.334Z,9052.00
2018-06-27T08:22:23.569Z,9004.00
2018-06-27T08:23:23.806Z,9060.00
2018-06-27T08:24:24.031Z,8888.00
2018-06-27T08:25:24.268Z,9144.00
2018-06-27T08:26:24.613Z,9120.00
2018-06-27T08:27:24.737Z,9072.00
2018-06-27T08:28:24.970Z,8556.00
2018-06-27T08:29:25.206Z,8852.00
2018-06-27T08:30:25.438Z,8884.00
2018-06-27T08:31:25.670Z,8908.00
2018-06-27T08:32:25.942Z,8784.00
2018-06-27T08:33:26.137Z,8904.00
2018-06-27T08:34:26.368Z,8728.00
2018-06-27T08:35:26.605Z,8592.00
2018-06-27T08:36:26.835Z,8548.00
2018-06-27T08:37:27.068Z,8452.00
2018-06-27T08:38:27.302Z,8472.00
2018-06-27T08:39:27.537Z,8356.00
2018-06-27T08:40:27.772Z,8352.00
2018-06-27T08:41:28.008Z,8412.00
2018-06-27T08:42:28.242Z,8368.00
2018-06-27T08:43:28.478Z,8368.00
2018-06-27T08:44:28.762Z,8408.00
2018-06-27T08:45:28.939Z,8276.00
2018-06-27T08:46:29.181Z,8244.00
2018-06-27T08:47:29.415Z,8196.00
2018-06-27T08:48:29.653Z,8332.00
2018-06-27T08:49:29.906Z,8468.00
2018-06-27T08:50:30.113Z,8456.00
2018-06-27T08:51:30.349Z,8456.00
2018-06-27T08:52:30.579Z,8524.00
2018-06-27T08:53:30.812Z,8648.00
2018-06-27T08:54:31.047Z,8644.00
2018-06-27T08:55:31.279Z,8604.00
2018-06-27T08:56:31.512Z,8564.00
2018-06-27T08:57:31.745Z,8508.00
2018-06-27T08:58:31.982Z,8628.00
2018-06-27T08:59:32.219Z,8628.00
2018-06-27T09:00:32.452Z,8608.00
2018-06-27T09:01:32.686Z,8680.00
2018-06-27T09:02:32.924Z,8680.00
2018-06-27T09:03:33.152Z,8676.00
2018-06-27T09:04:33.379Z,8660.00
2018-06-27T09:05:33.612Z,8592.00
2018-06-27T09:06:33.845Z,8080.00
2018-06-27T09:07:34.080Z,7100.00
2018-06-27T09:08:34.328Z,6872.00
2018-06-27T09:09:34.547Z,8912.00
2018-06-27T09:10:34.782Z,8868.00
2018-06-27T09:11:35.014Z,8928.00
2018-06-27T09:12:35.252Z,8948.00
2018-06-27T09:13:35.484Z,9012.00
2018-06-27T09:14:35.721Z,8988.00
2018-06-27T09:15:35.958Z,9028.00
2018-06-27T09:16:36.195Z,8964.00
2018-06-27T09:17:36.423Z,8964.00
2018-06-27T09:18:36.692Z,9052.00
2018-06-27T09:19:36.907Z,9124.00
2018-06-27T09:20:37.142Z,9172.00
2018-06-27T09:21:37.374Z,9276.00
2018-06-27T09:22:37.610Z,9196.00
2018-06-27T09:23:37.843Z,5808.00
2018-06-27T09:24:38.077Z,5912.00
2018-06-27T09:25:38.314Z,9404.00
2018-06-27T09:26:38.543Z,9492.00
2018-06-27T09:27:38.783Z,9604.00
2018-06-27T09:28:39.012Z,9608.00
2018-06-27T09:29:39.259Z,6228.00
2018-06-27T09:30:39.495Z,6036.00
2018-06-27T09:31:39.712Z,6116.00
2018-06-27T09:32:39.946Z,9692.00
2018-06-27T09:33:40.177Z,6372.00
2018-06-27T09:34:40.420Z,5956.00
2018-06-27T09:35:40.651Z,6264.00
2018-06-27T09:36:40.884Z,9632.00
2018-06-27T09:37:41.119Z,8188.00
2018-06-27T09:38:41.350Z,6236.00
2018-06-27T09:39:41.584Z,6464.00
2018-06-27T09:40:41.813Z,9872.00
2018-06-27T09:41:42.038Z,10000.00
2018-06-27T09:42:42.288Z,10088.00
2018-06-27T09:43:42.520Z,7060.00
2018-06-27T09:44:42.751Z,10296.00
2018-06-27T09:45:42.983Z,8704.00
2018-06-27T09:46:43.215Z,10500.00
2018-06-27T09:47:43.452Z,10900.00
2018-06-27T09:48:43.681Z,9208.00
2018-06-27T09:49:43.913Z,10960.00
2018-06-27T09:50:44.142Z,10652.00
2018-06-27T09:51:44.380Z,10376.00
2018-06-27T09:52:44.614Z,7356.00
2018-06-27T09:53:44.851Z,7224.00
2018-06-27T09:54:45.083Z,10188.00
2018-06-27T09:55:45.317Z,9740.00
2018-06-27T09:56:45.560Z,6416.00
2018-06-27T09:57:45.793Z,9676.00
2018-06-27T09:58:46.052Z,9452.00
2018-06-27T09:59:46.258Z,8428.00
2018-06-27T10:00:46.486Z,8944.00
2018-06-27T10:01:46.722Z,9032.00
2018-06-27T10:02:46.964Z,8960.00
2018-06-27T10:03:47.190Z,8940.00
2018-06-27T10:04:47.414Z,9048.00
2018-06-27T10:05:47.652Z,9156.00
2018-06-27T10:06:47.884Z,9336.00
2018-06-27T10:07:48.131Z,9324.00
2018-06-27T10:08:48.351Z,9080.00
2018-06-27T10:09:48.585Z,9048.00
2018-06-27T10:10:48.818Z,9048.00
2018-06-27T10:11:49.060Z,8916.00
2018-06-27T10:12:49.291Z,9056.00
2018-06-27T10:13:49.526Z,9296.00
2018-06-27T10:14:49.758Z,9636.00
2018-06-27T10:15:49.994Z,10016.00
2018-06-27T10:16:50.235Z,10188.00
2018-06-27T10:17:50.465Z,10092.00
2018-06-27T10:18:50.700Z,9728.00
2018-06-27T10:19:50.937Z,9072.00
2018-06-27T10:20:51.170Z,5628.00
2018-06-27T10:21:51.407Z,8812.00
2018-06-27T10:22:51.647Z,6288.00
2018-06-27T10:23:51.881Z,8832.00
2018-06-27T10:24:52.119Z,8864.00
2018-06-27T10:25:52.351Z,8924.00
2018-06-27T10:26:52.586Z,9132.00
2018-06-27T10:27:52.825Z,9224.00
2018-06-27T10:28:53.056Z,9256.00
2018-06-27T10:29:53.294Z,9420.00
2018-06-27T10:30:53.527Z,7304.00
2018-06-27T10:31:53.761Z,6988.00
2018-06-27T10:32:53.994Z,9836.00
2018-06-27T10:33:54.224Z,9644.00
2018-06-27T10:34:54.489Z,6336.00
2018-06-27T10:35:54.691Z,5704.00
2018-06-27T10:36:54.931Z,8948.00
2018-06-27T10:37:55.168Z,8836.00
2018-06-27T10:38:55.399Z,8824.00
2018-06-27T10:39:55.633Z,8820.00
2018-06-27T10:40:55.870Z,8676.00
2018-06-27T10:41:56.104Z,8636.00
2018-06-27T10:42:56.338Z,8688.00
2018-06-27T10:43:56.620Z,8928.00
2018-06-27T10:44:56.813Z,9296.00
2018-06-27T10:45:57.048Z,9688.00
2018-06-27T10:46:57.280Z,10064.00
2018-06-27T10:47:57.519Z,8372.00
2018-06-27T10:48:57.749Z,10504.00
2018-06-27T10:49:57.982Z,10672.00
2018-06-27T10:50:58.221Z,11072.00
2018-06-27T10:51:58.454Z,11292.00
2018-06-27T10:52:58.688Z,10936.00
2018-06-27T10:53:58.920Z,10288.00
2018-06-27T10:54:59.157Z,9856.00
2018-06-27T10:55:59.389Z,9260.00
2018-06-27T10:56:59.626Z,8852.00
2018-06-27T10:57:59.860Z,8924.00
2018-06-27T10:59:00.094Z,8776.00
2018-06-27T11:00:00.331Z,8832.00
2018-06-27T11:01:00.569Z,9084.00
2018-06-27T11:02:00.805Z,9148.00
2018-06-27T11:03:01.045Z,9184.00
2018-06-27T11:04:01.280Z,9072.00
2018-06-27T11:05:01.515Z,9016.00
2018-06-27T11:06:01.749Z,7204.00
2018-06-27T11:07:01.984Z,8832.00
2018-06-27T11:08:02.222Z,9224.00
2018-06-27T11:09:02.453Z,9140.00
2018-06-27T11:10:02.687Z,6380.00
2018-06-27T11:11:02.924Z,8496.00
2018-06-27T11:12:03.158Z,8884.00
2018-06-27T11:13:03.393Z,8800.00
2018-06-27T11:14:03.636Z,5976.00
2018-06-27T11:15:03.865Z,8752.00
2018-06-27T11:16:04.104Z,8672.00
2018-06-27T11:17:04.336Z,8548.00
2018-06-27T11:18:04.570Z,8480.00
2018-06-27T11:19:04.808Z,8372.00
2018-06-27T11:20:05.048Z,8424.00
2018-06-27T11:21:05.282Z,8652.00
2018-06-27T11:22:05.519Z,9128.00
2018-06-27T11:23:05.751Z,9156.00
2018-06-27T11:24:05.986Z,9148.00
2018-06-27T11:25:06.222Z,9152.00
2018-06-27T11:26:06.462Z,9144.00
2018-06-27T11:27:06.694Z,9108.00
2018-06-27T11:28:06.931Z,8996.00
2018-06-27T11:29:07.166Z,9060.00
2018-06-27T11:30:07.397Z,6328.00
2018-06-27T11:31:07.635Z,9068.00
2018-06-27T11:32:07.868Z,6348.00
2018-06-27T11:33:08.104Z,6808.00
2018-06-27T11:34:08.339Z,9216.00
2018-06-27T11:35:08.582Z,9136.00
2018-06-27T11:36:08.814Z,9156.00
2018-06-27T11:37:09.048Z,9260.00
2018-06-27T11:38:09.284Z,9668.00
2018-06-27T11:39:09.515Z,6856.00
2018-06-27T11:40:09.756Z,10084.00
2018-06-27T11:41:09.996Z,6620.00
2018-06-27T11:42:10.232Z,6528.00
2018-06-27T11:43:10.487Z,6652.00
2018-06-27T11:44:10.705Z,6812.00
2018-06-27T11:45:10.943Z,6908.00
2018-06-27T11:46:11.176Z,7152.00
2018-06-27T11:47:11.410Z,7408.00
2018-06-27T11:48:11.646Z,8356.00
2018-06-27T11:49:11.884Z,10508.00
2018-06-27T11:50:12.121Z,10444.00
2018-06-27T11:51:12.355Z,10216.00
2018-06-27T11:52:12.590Z,10000.00
2018-06-27T11:53:12.837Z,10068.00
2018-06-27T11:54:13.072Z,9940.00
2018-06-27T11:55:13.297Z,9272.00
2018-06-27T11:56:13.530Z,9732.00
2018-06-27T11:57:13.762Z,6616.00
2018-06-27T11:58:13.999Z,6884.00
2018-06-27T11:59:14.234Z,10252.00
2018-06-27T12:00:14.469Z,10464.00
2018-06-27T12:01:14.709Z,10560.00
2018-06-27T12:02:14.943Z,10588.00
2018-06-27T12:03:15.176Z,10376.00
2018-06-27T12:04:15.412Z,10004.00
2018-06-27T12:05:15.647Z,9860.00
2018-06-27T12:06:15.882Z,9856.00
2018-06-27T12:07:16.117Z,7056.00
2018-06-27T12:08:16.353Z,6452.00
2018-06-27T12:09:16.588Z,6184.00
2018-06-27T12:10:16.818Z,6708.00
2018-06-27T12:11:17.057Z,6332.00
2018-06-27T12:12:17.291Z,9540.00
2018-06-27T12:13:17.533Z,9632.00
2018-06-27T12:14:17.762Z,9628.00
2018-06-27T12:15:18.000Z,9532.00
2018-06-27T12:16:18.237Z,9524.00
2018-06-27T12:17:18.469Z,9428.00
2018-06-27T12:18:18.710Z,9252.00
2018-06-27T12:19:18.945Z,9340.00